createdAt,value
2019-03-27T00:04:57.062Z,7.50
2019-03-27T00:10:02.347Z,6.17
2019-03-27T00:15:13.261Z,7.00
2019-03-27T00:20:17.054Z,6.67
2019-03-27T00:25:25.906Z,6.60
2019-03-27T00:30:29.946Z,6.00
2019-03-27T00:35:37.390Z,6.50
2019-03-27T00:40:42.318Z,6.33
2019-03-27T00:45:48.203Z,6.00
2019-03-27T00:50:53.002Z,8.00
2019-03-27T00:56:00.998Z,6.80
2019-03-27T01:01:06.615Z,6.00
2019-03-27T01:06:09.831Z,6.00
2019-03-27T01:11:12.914Z,6.00
2019-03-27T01:16:20.238Z,7.67
2019-03-27T01:21:28.455Z,7.00
2019-03-27T01:26:32.471Z,5.00
2019-03-27T01:31:35.490Z,6.00
2019-03-27T01:36:41.923Z,6.40
2019-03-27T01:41:47.418Z,6.17
2019-03-27T01:46:51.379Z,6.00
2019-03-27T01:51:55.487Z,7.00
2019-03-27T01:56:59.611Z,6.67
2019-03-27T02:02:03.449Z,7.00
2019-03-27T02:07:07.475Z,7.67
2019-03-27T02:12:12.278Z,7.43
2019-03-27T02:17:16.090Z,8.00
2019-03-27T02:22:23.534Z,7.00
2019-03-27T02:27:28.078Z,6.50
2019-03-27T02:32:31.154Z,7.00
2019-03-27T02:37:37.240Z,9.00
2019-03-27T02:42:40.962Z,8.33
2019-03-27T02:47:47.341Z,9.86
2019-03-27T02:52:51.331Z,8.50
2019-03-27T02:57:55.276Z,8.60
2019-03-27T03:02:59.368Z,8.00
2019-03-27T03:08:07.480Z,8.86
2019-03-27T03:13:14.175Z,10.14
2019-03-27T03:18:20.604Z,9.14
2019-03-27T03:23:26.485Z,13.71
2019-03-27T03:28:31.561Z,9.00
2019-03-27T03:33:35.630Z,8.50
2019-03-27T03:38:42.168Z,10.00
2019-03-27T03:43:45.964Z,8.00
2019-03-27T03:48:52.096Z,10.29
2019-03-27T03:53:58.586Z,13.00
2019-03-27T03:59:02.763Z,9.67
2019-03-27T04:04:10.001Z,11.00
2019-03-27T04:09:14.979Z,10.43
2019-03-27T04:14:18.896Z,9.00
2019-03-27T04:19:25.219Z,10.57
2019-03-27T04:24:31.649Z,11.71
2019-03-27T04:29:35.491Z,11.25
2019-03-27T04:34:40.172Z,13.71
2019-03-27T04:39:45.942Z,11.57
2019-03-27T04:44:51.516Z,12.57
2019-03-27T04:49:57.415Z,12.00
2019-03-27T04:55:04.888Z,10.71
2019-03-27T05:00:09.872Z,12.00
2019-03-27T05:05:15.968Z,12.43
2019-03-27T05:10:20.941Z,20.00
2019-03-27T05:15:26.653Z,12.37
2019-03-27T05:20:30.683Z,23.33
2019-03-27T05:25:33.964Z,19.00
2019-03-27T05:30:37.320Z,20.00
2019-03-27T05:35:45.683Z,17.00
2019-03-27T05:40:50.515Z,14.50
2019-03-27T05:45:56.214Z,14.87
2019-03-27T05:51:02.116Z,11.29
2019-03-27T05:56:08.724Z,15.25
2019-03-27T06:01:15.346Z,12.25
2019-03-27T06:06:18.710Z,16.00
2019-03-27T06:11:24.406Z,13.50
2019-03-27T06:16:27.742Z,11.00
2019-03-27T06:21:33.606Z,17.75
2019-03-27T06:26:41.801Z,14.87
2019-03-27T06:31:49.063Z,16.87
2019-03-27T06:36:55.672Z,14.00
2019-03-27T06:42:00.499Z,11.14
2019-03-27T06:47:07.267Z,11.00
2019-03-27T06:52:11.355Z,10.60
2019-03-27T06:57:19.890Z,10.00
2019-03-27T07:02:28.591Z,18.25
2019-03-27T07:07:33.929Z,9.57
2019-03-27T07:12:37.424Z,19.00
2019-03-27T07:17:43.538Z,10.00
2019-03-27T07:22:51.058Z,9.29
2019-03-27T07:27:59.621Z,12.29
2019-03-27T07:33:04.752Z,12.29
2019-03-27T07:38:12.514Z,6.30
2019-03-27T07:43:16.167Z,9.17
2019-03-27T07:48:21.410Z,23.14
2019-03-27T07:53:25.897Z,8.00
2019-03-27T07:58:34.566Z,13.60
2019-03-27T08:03:39.784Z,20.00
2019-03-27T08:08:44.257Z,7.00
2019-03-27T08:13:49.457Z,8.00
2019-03-27T08:19:06.624Z,13.33
2019-03-27T08:24:00.147Z,8.00
2019-03-27T08:29:05.469Z,10.14
2019-03-27T08:34:10.826Z,12.71
2019-03-27T08:39:16.300Z,10.43
2019-03-27T08:44:19.937Z,12.50
2019-03-27T08:49:26.346Z,13.43
2019-03-27T08:54:35.080Z,13.09
2019-03-27T08:59:40.410Z,11.43
2019-03-27T09:04:45.814Z,21.50
2019-03-27T09:09:53.739Z,19.50
2019-03-27T09:14:59.907Z,11.29
2019-03-27T09:20:04.116Z,16.67
2019-03-27T09:25:09.080Z,13.86
2019-03-27T09:30:15.306Z,17.43
2019-03-27T09:35:19.082Z,12.00
2019-03-27T09:40:25.577Z,11.57
2019-03-27T09:45:31.008Z,12.43
2019-03-27T09:50:34.626Z,10.20
2019-03-27T09:55:39.111Z,10.43
2019-03-27T10:00:47.702Z,11.67
2019-03-27T10:05:52.278Z,10.57
2019-03-27T10:10:57.725Z,10.00
2019-03-27T10:16:02.953Z,9.71
2019-03-27T10:21:07.187Z,8.83
2019-03-27T10:26:11.506Z,8.83
2019-03-27T10:31:18.472Z,7.17
2019-03-27T10:36:24.459Z,9.17
2019-03-27T10:41:28.002Z,5.00
2019-03-27T10:46:32.539Z,11.14
2019-03-27T10:51:41.044Z,9.71
2019-03-27T10:56:48.815Z,12.57
2019-03-27T11:01:53.168Z,10.00
2019-03-27T11:06:59.902Z,20.12
2019-03-27T11:12:05.623Z,7.86
2019-03-27T11:17:12.552Z,8.71
2019-03-27T11:22:17.728Z,10.43
2019-03-27T11:27:24.687Z,11.50
2019-03-27T11:32:29.017Z,8.00
2019-03-27T11:37:35.190Z,8.00
2019-03-27T11:42:42.932Z,9.00
2019-03-27T11:47:46.567Z,6.83
2019-03-27T11:52:53.597Z,9.00
2019-03-27T11:57:58.067Z,11.43
2019-03-27T12:03:01.625Z,4.25
2019-03-27T12:08:06.127Z,10.00
2019-03-27T12:13:11.504Z,9.00
2019-03-27T12:18:14.682Z,9.00
2019-03-27T12:23:19.545Z,8.17
2019-03-27T12:28:27.510Z,17.00
2019-03-27T12:33:32.998Z,9.57
2019-03-27T12:38:37.546Z,9.00
2019-03-27T12:43:42.667Z,9.43
2019-03-27T12:48:47.411Z,9.17
2019-03-27T12:53:52.054Z,4.83
2019-03-27T12:58:59.548Z,9.17
2019-03-27T13:04:05.206Z,13.57
2019-03-27T13:09:13.235Z,11.00
2019-03-27T13:14:17.610Z,9.57
2019-03-27T13:19:26.151Z,10.71
2019-03-27T13:24:30.935Z,11.71
2019-03-27T13:29:34.758Z,13.33
2019-03-27T13:34:43.863Z,18.09
2019-03-27T13:39:50.854Z,20.37
2019-03-27T13:44:56.308Z,7.17
2019-03-27T13:49:59.110Z,20.00
2019-03-27T13:55:02.216Z,12.00
2019-03-27T14:00:06.610Z,11.00
2019-03-27T14:05:14.467Z,8.17
2019-03-27T14:10:18.684Z,2.00
2019-03-27T14:15:22.171Z,23.00
2019-03-27T14:20:30.890Z,12.33
2019-03-27T14:25:38.539Z,23.56
2019-03-27T14:30:50.876Z,14.57
2019-03-27T14:35:58.572Z,69.45
2019-03-27T14:41:03.593Z,30.00
2019-03-27T14:46:08.133Z,14.25
2019-03-27T14:51:14.591Z,11.00
2019-03-27T14:56:21.942Z,18.56
2019-03-27T15:01:31.112Z,22.50
2019-03-27T15:06:40.272Z,19.11
2019-03-27T15:11:45.832Z,15.14
2019-03-27T15:16:52.007Z,8.00
2019-03-27T15:21:57.226Z,12.43
2019-03-27T15:27:02.972Z,11.43
2019-03-27T15:32:08.967Z,8.17
2019-03-27T15:37:18.954Z,18.54
2019-03-27T15:42:26.882Z,48.00
2019-03-27T15:47:32.542Z,10.43
2019-03-27T15:52:37.111Z,13.00
2019-03-27T15:57:40.859Z,13.00
2019-03-27T16:02:46.816Z,8.86
2019-03-27T16:07:53.678Z,14.75
2019-03-27T16:12:57.227Z,17.00
2019-03-27T16:18:02.492Z,14.14
2019-03-27T16:23:11.917Z,13.62
2019-03-27T16:28:16.470Z,10.57
2019-03-27T16:33:19.987Z,12.25
2019-03-27T16:38:23.510Z,14.50
2019-03-27T16:43:28.817Z,14.00
2019-03-27T16:48:32.363Z,12.00
2019-03-27T16:53:41.249Z,14.38
2019-03-27T16:58:44.800Z,11.75
2019-03-27T17:03:50.356Z,17.86
2019-03-27T17:09:02.472Z,25.40
2019-03-27T17:14:10.048Z,22.00
2019-03-27T17:19:15.798Z,28.38
2019-03-27T17:24:21.810Z,19.43
2019-03-27T17:29:27.887Z,24.00
2019-03-27T17:34:35.136Z,31.33
2019-03-27T17:39:40.979Z,24.75
2019-03-27T17:44:51.951Z,25.25
2019-03-27T17:49:57.015Z,23.78
2019-03-27T17:55:05.175Z,24.00
2019-03-27T18:00:14.694Z,26.25
2019-03-27T18:05:21.234Z,23.62
2019-03-27T18:10:28.839Z,47.00
2019-03-27T18:15:32.993Z,39.00
2019-03-27T18:20:37.118Z,39.50
2019-03-27T18:25:43.728Z,28.00
2019-03-27T18:30:50.915Z,21.12
2019-03-27T18:35:57.754Z,26.75
2019-03-27T18:41:05.354Z,24.63
2019-03-27T18:46:08.771Z,24.00
2019-03-27T18:51:14.717Z,28.38
2019-03-27T18:56:17.802Z,27.67
2019-03-27T19:01:26.340Z,27.50
2019-03-27T19:06:34.077Z,26.50
2019-03-27T19:11:38.045Z,29.00
2019-03-27T19:16:42.448Z,31.00
2019-03-27T19:21:46.880Z,29.75
2019-03-27T19:26:50.884Z,41.67
2019-03-27T19:31:59.994Z,31.46
2019-03-27T19:37:09.017Z,29.20
2019-03-27T19:42:24.995Z,29.89
2019-03-27T19:47:38.002Z,32.00
2019-03-27T19:52:42.350Z,34.00
2019-03-27T19:57:48.491Z,31.00
2019-03-27T20:02:55.416Z,31.33
2019-03-27T20:08:04.726Z,30.80
2019-03-27T20:13:25.447Z,32.05
2019-03-27T20:18:29.704Z,33.67
2019-03-27T20:23:43.833Z,39.64
2019-03-27T20:29:00.638Z,32.68
2019-03-27T20:34:10.532Z,33.00
2019-03-27T20:39:23.096Z,100.33
2019-03-27T20:44:28.486Z,34.17
2019-03-27T20:49:38.429Z,41.14
2019-03-27T20:54:54.962Z,33.00
2019-03-27T20:59:52.618Z,34.40
2019-03-27T21:04:57.654Z,34.86
2019-03-27T21:10:04.941Z,32.38
2019-03-27T21:15:22.723Z,40.00
2019-03-27T21:20:27.910Z,35.29
2019-03-27T21:25:31.968Z,34.00
2019-03-27T21:30:41.266Z,29.63
2019-03-27T21:35:50.754Z,37.00
2019-03-27T21:41:06.108Z,33.20
2019-03-27T21:46:17.064Z,40.38
2019-03-27T21:51:29.641Z,46.19
2019-03-27T21:56:39.990Z,36.23
2019-03-27T22:01:45.858Z,33.00
2019-03-27T22:06:52.849Z,35.00
2019-03-27T22:12:08.298Z,46.78
2019-03-27T22:17:13.563Z,43.50
2019-03-27T22:22:22.441Z,44.63
2019-03-27T22:32:37.397Z,33.13
2019-03-27T22:37:45.233Z,28.25
2019-03-27T22:42:49.790Z,29.00
2019-03-27T22:47:56.739Z,31.00
2019-03-27T22:53:06.098Z,29.75
2019-03-27T22:58:14.314Z,29.00
2019-03-27T23:03:22.431Z,32.25
2019-03-27T23:08:26.262Z,29.00
2019-03-27T23:13:33.365Z,31.00
2019-03-27T23:18:43.317Z,31.00
2019-03-27T23:23:47.819Z,31.00
2019-03-27T23:28:56.648Z,30.12
2019-03-27T23:34:03.666Z,31.22
2019-03-27T23:39:12.293Z,33.00
2019-03-27T23:44:22.570Z,31.00
2019-03-27T23:49:31.333Z,30.75
2019-03-27T23:54:40.717Z,30.50
2019-03-27T23:59:47.006Z,29.00
